sensor_id;sensor_type;location;lat;lon;timestamp;P1;durP1;ratioP1;P2;durP2;ratioP2
41667;SDS011;27356;50.920;5.350;2023-02-28T00:00:04;7.75;;;4.28;;
41667;SDS011;27356;50.920;5.350;2023-02-28T00:02:40;6.57;;;4.25;;
41667;SDS011;27356;50.920;5.350;2023-02-28T00:05:08;6.35;;;4.70;;
41667;SDS011;27356;50.920;5.350;2023-02-28T00:07:38;7.32;;;4.80;;
41667;SDS011;27356;50.920;5.350;2023-02-28T00:10:04;8.77;;;4.60;;
41667;SDS011;27356;50.920;5.350;2023-02-28T00:12:32;6.47;;;4.25;;
41667;SDS011;27356;50.920;5.350;2023-02-28T00:15:04;9.98;;;4.65;;
41667;SDS011;27356;50.920;5.350;2023-02-28T00:17:31;9.73;;;5.43;;
41667;SDS011;27356;50.920;5.350;2023-02-28T00:19:57;10.05;;;4.22;;
41667;SDS011;27356;50.920;5.350;2023-02-28T00:22:35;10.57;;;4.85;;
41667;SDS011;27356;50.920;5.350;2023-02-28T00:25:01;9.38;;;5.15;;
41667;SDS011;27356;50.920;5.350;2023-02-28T00:27:28;10.48;;;4.80;;
41667;SDS011;27356;50.920;5.350;2023-02-28T00:29:54;6.93;;;4.70;;
41667;SDS011;27356;50.920;5.350;2023-02-28T00:32:20;10.13;;;4.93;;
41667;SDS011;27356;50.920;5.350;2023-02-28T00:34:46;11.57;;;5.53;;
41667;SDS011;27356;50.920;5.350;2023-02-28T00:37:12;7.97;;;4.53;;
41667;SDS011;27356;50.920;5.350;2023-02-28T00:39:38;10.57;;;5.22;;
41667;SDS011;27356;50.920;5.350;2023-02-28T00:42:04;9.52;;;4.88;;
41667;SDS011;27356;50.920;5.350;2023-02-28T00:44:31;14.80;;;6.13;;
41667;SDS011;27356;50.920;5.350;2023-02-28T00:46:57;7.18;;;5.25;;
41667;SDS011;27356;50.920;5.350;2023-02-28T00:49:24;9.82;;;4.97;;
41667;SDS011;27356;50.920;5.350;2023-02-28T00:51:51;12.75;;;5.03;;
41667;SDS011;27356;50.920;5.350;2023-02-28T00:54:18;11.80;;;4.93;;
41667;SDS011;27356;50.920;5.350;2023-02-28T00:56:43;8.68;;;5.05;;
41667;SDS011;27356;50.920;5.350;2023-02-28T00:59:11;13.25;;;5.63;;
41667;SDS011;27356;50.920;5.350;2023-02-28T01:01:37;10.93;;;5.60;;
41667;SDS011;27356;50.920;5.350;2023-02-28T01:04:04;12.68;;;5.88;;
41667;SDS011;27356;50.920;5.350;2023-02-28T01:06:30;8.60;;;5.43;;
41667;SDS011;27356;50.920;5.350;2023-02-28T01:08:56;12.32;;;5.30;;
41667;SDS011;27356;50.920;5.350;2023-02-28T01:11:23;8.75;;;5.38;;
41667;SDS011;27356;50.920;5.350;2023-02-28T01:13:49;8.63;;;5.65;;
41667;SDS011;27356;50.920;5.350;2023-02-28T01:16:14;10.82;;;5.57;;
41667;SDS011;27356;50.920;5.350;2023-02-28T01:18:40;8.57;;;5.65;;
41667;SDS011;27356;50.920;5.350;2023-02-28T01:21:10;16.88;;;5.78;;
41667;SDS011;27356;50.920;5.350;2023-02-28T01:26:09;14.38;;;6.47;;
41667;SDS011;27356;50.920;5.350;2023-02-28T01:28:37;15.38;;;6.53;;
41667;SDS011;27356;50.920;5.350;2023-02-28T01:31:03;9.50;;;5.43;;
41667;SDS011;27356;50.920;5.350;2023-02-28T01:33:29;12.07;;;5.90;;
41667;SDS011;27356;50.920;5.350;2023-02-28T01:36:01;9.15;;;5.55;;
41667;SDS011;27356;50.920;5.350;2023-02-28T01:38:32;10.63;;;5.80;;
41667;SDS011;27356;50.920;5.350;2023-02-28T01:40:58;9.82;;;5.70;;
41667;SDS011;27356;50.920;5.350;2023-02-28T01:43:28;8.85;;;5.93;;
41667;SDS011;27356;50.920;5.350;2023-02-28T01:45:56;9.02;;;5.25;;
41667;SDS011;27356;50.920;5.350;2023-02-28T01:48:27;8.13;;;5.30;;
41667;SDS011;27356;50.920;5.350;2023-02-28T01:50:56;10.68;;;5.32;;
41667;SDS011;27356;50.920;5.350;2023-02-28T01:53:28;7.32;;;4.80;;
41667;SDS011;27356;50.920;5.350;2023-02-28T01:55:57;10.75;;;5.95;;
41667;SDS011;27356;50.920;5.350;2023-02-28T01:58:23;10.15;;;5.65;;
41667;SDS011;27356;50.920;5.350;2023-02-28T02:00:51;9.13;;;5.28;;
41667;SDS011;27356;50.920;5.350;2023-02-28T02:03:18;9.77;;;5.35;;
41667;SDS011;27356;50.920;5.350;2023-02-28T02:05:45;7.32;;;4.97;;
41667;SDS011;27356;50.920;5.350;2023-02-28T02:08:17;7.07;;;5.65;;
41667;SDS011;27356;50.920;5.350;2023-02-28T02:10:49;7.47;;;4.93;;
41667;SDS011;27356;50.920;5.350;2023-02-28T02:40:25;12.40;;;6.68;;
41667;SDS011;27356;50.920;5.350;2023-02-28T02:43:12;11.88;;;7.28;;
41667;SDS011;27356;50.920;5.350;2023-02-28T02:45:52;13.40;;;7.25;;
41667;SDS011;27356;50.920;5.350;2023-02-28T02:48:27;11.02;;;7.10;;
41667;SDS011;27356;50.920;5.350;2023-02-28T02:51:01;10.68;;;6.40;;
41667;SDS011;27356;50.920;5.350;2023-02-28T02:53:38;11.25;;;6.82;;
41667;SDS011;27356;50.920;5.350;2023-02-28T02:56:09;10.88;;;6.82;;
41667;SDS011;27356;50.920;5.350;2023-02-28T02:58:37;7.55;;;5.75;;
41667;SDS011;27356;50.920;5.350;2023-02-28T03:01:07;11.20;;;6.53;;
41667;SDS011;27356;50.920;5.350;2023-02-28T03:06:05;14.00;;;7.05;;
41667;SDS011;27356;50.920;5.350;2023-02-28T03:08:33;14.70;;;8.00;;
41667;SDS011;27356;50.920;5.350;2023-02-28T03:11:02;10.15;;;6.93;;
41667;SDS011;27356;50.920;5.350;2023-02-28T03:23:56;14.15;;;6.65;;
41667;SDS011;27356;50.920;5.350;2023-02-28T03:26:29;14.43;;;7.70;;
41667;SDS011;27356;50.920;5.350;2023-02-28T03:31:48;10.75;;;6.80;;
41667;SDS011;27356;50.920;5.350;2023-02-28T03:34:26;9.35;;;6.55;;
41667;SDS011;27356;50.920;5.350;2023-02-28T03:36:59;12.57;;;6.93;;
41667;SDS011;27356;50.920;5.350;2023-02-28T03:42:05;12.30;;;7.97;;
41667;SDS011;27356;50.920;5.350;2023-02-28T03:45:10;15.32;;;7.35;;
41667;SDS011;27356;50.920;5.350;2023-02-28T03:47:45;15.30;;;6.88;;
41667;SDS011;27356;50.920;5.350;2023-02-28T03:53:00;13.18;;;6.00;;
41667;SDS011;27356;50.920;5.350;2023-02-28T03:55:51;10.68;;;6.72;;
41667;SDS011;27356;50.920;5.350;2023-02-28T04:04:00;13.43;;;7.30;;
41667;SDS011;27356;50.920;5.350;2023-02-28T04:06:27;14.63;;;7.78;;
41667;SDS011;27356;50.920;5.350;2023-02-28T04:08:56;10.82;;;7.55;;
41667;SDS011;27356;50.920;5.350;2023-02-28T04:11:24;11.48;;;7.47;;
41667;SDS011;27356;50.920;5.350;2023-02-28T04:14:03;11.05;;;7.40;;
41667;SDS011;27356;50.920;5.350;2023-02-28T04:16:30;13.00;;;8.27;;
41667;SDS011;27356;50.920;5.350;2023-02-28T04:18:56;11.48;;;8.30;;
41667;SDS011;27356;50.920;5.350;2023-02-28T04:21:32;11.90;;;7.22;;
41667;SDS011;27356;50.920;5.350;2023-02-28T04:24:04;15.30;;;6.95;;
41667;SDS011;27356;50.920;5.350;2023-02-28T04:26:33;13.95;;;8.27;;
41667;SDS011;27356;50.920;5.350;2023-02-28T04:29:05;12.02;;;7.30;;
41667;SDS011;27356;50.920;5.350;2023-02-28T04:31:32;12.27;;;8.60;;
41667;SDS011;27356;50.920;5.350;2023-02-28T04:33:58;16.02;;;8.43;;
41667;SDS011;27356;50.920;5.350;2023-02-28T04:36:24;14.20;;;8.45;;
41667;SDS011;27356;50.920;5.350;2023-02-28T04:38:50;16.80;;;9.02;;
41667;SDS011;27356;50.920;5.350;2023-02-28T04:41:16;14.07;;;8.43;;
41667;SDS011;27356;50.920;5.350;2023-02-28T04:43:42;15.60;;;9.38;;
41667;SDS011;27356;50.920;5.350;2023-02-28T04:46:08;15.75;;;8.82;;
41667;SDS011;27356;50.920;5.350;2023-02-28T04:48:35;14.32;;;8.50;;
41667;SDS011;27356;50.920;5.350;2023-02-28T04:51:05;17.77;;;8.88;;
41667;SDS011;27356;50.920;5.350;2023-02-28T04:53:36;17.02;;;9.38;;
41667;SDS011;27356;50.920;5.350;2023-02-28T04:56:02;15.50;;;8.90;;
41667;SDS011;27356;50.920;5.350;2023-02-28T04:58:28;14.02;;;8.38;;
41667;SDS011;27356;50.920;5.350;2023-02-28T05:00:57;11.70;;;7.88;;
41667;SDS011;27356;50.920;5.350;2023-02-28T05:03:28;16.90;;;9.25;;
41667;SDS011;27356;50.920;5.350;2023-02-28T05:05:54;18.55;;;10.27;;
41667;SDS011;27356;50.920;5.350;2023-02-28T05:08:20;13.15;;;7.70;;
41667;SDS011;27356;50.920;5.350;2023-02-28T05:10:46;12.63;;;8.20;;
41667;SDS011;27356;50.920;5.350;2023-02-28T05:13:12;12.52;;;8.63;;
41667;SDS011;27356;50.920;5.350;2023-02-28T05:15:37;17.13;;;8.65;;
41667;SDS011;27356;50.920;5.350;2023-02-28T05:18:03;14.38;;;9.13;;
41667;SDS011;27356;50.920;5.350;2023-02-28T05:20:29;14.98;;;9.77;;
41667;SDS011;27356;50.920;5.350;2023-02-28T05:22:54;15.68;;;9.63;;
41667;SDS011;27356;50.920;5.350;2023-02-28T05:25:22;15.20;;;9.05;;
41667;SDS011;27356;50.920;5.350;2023-02-28T05:27:47;11.02;;;8.15;;
41667;SDS011;27356;50.920;5.350;2023-02-28T05:30:14;12.60;;;8.45;;
41667;SDS011;27356;50.920;5.350;2023-02-28T05:32:40;15.45;;;8.50;;
41667;SDS011;27356;50.920;5.350;2023-02-28T05:35:10;15.75;;;8.82;;
41667;SDS011;27356;50.920;5.350;2023-02-28T05:37:36;15.07;;;7.78;;
41667;SDS011;27356;50.920;5.350;2023-02-28T05:40:03;16.52;;;9.30;;
41667;SDS011;27356;50.920;5.350;2023-02-28T05:42:35;13.45;;;8.75;;
41667;SDS011;27356;50.920;5.350;2023-02-28T05:45:01;17.90;;;9.00;;
41667;SDS011;27356;50.920;5.350;2023-02-28T05:47:29;15.20;;;9.30;;
41667;SDS011;27356;50.920;5.350;2023-02-28T05:49:55;18.52;;;9.07;;
41667;SDS011;27356;50.920;5.350;2023-02-28T05:52:20;15.45;;;9.07;;
41667;SDS011;27356;50.920;5.350;2023-02-28T05:54:46;14.52;;;9.57;;
41667;SDS011;27356;50.920;5.350;2023-02-28T05:57:12;20.92;;;8.98;;
41667;SDS011;27356;50.920;5.350;2023-02-28T05:59:38;14.93;;;8.65;;
41667;SDS011;27356;50.920;5.350;2023-02-28T06:02:05;14.90;;;9.05;;
41667;SDS011;27356;50.920;5.350;2023-02-28T06:04:35;19.23;;;9.70;;
41667;SDS011;27356;50.920;5.350;2023-02-28T06:07:01;14.43;;;9.20;;
41667;SDS011;27356;50.920;5.350;2023-02-28T06:09:27;14.93;;;8.80;;
41667;SDS011;27356;50.920;5.350;2023-02-28T06:11:52;18.00;;;8.43;;
41667;SDS011;27356;50.920;5.350;2023-02-28T06:14:19;19.60;;;10.05;;
41667;SDS011;27356;50.920;5.350;2023-02-28T06:16:45;14.38;;;8.10;;
41667;SDS011;27356;50.920;5.350;2023-02-28T06:19:14;11.13;;;8.32;;
41667;SDS011;27356;50.920;5.350;2023-02-28T06:21:40;14.00;;;9.43;;
41667;SDS011;27356;50.920;5.350;2023-02-28T06:24:06;12.43;;;8.88;;
41667;SDS011;27356;50.920;5.350;2023-02-28T06:26:33;16.80;;;8.32;;
41667;SDS011;27356;50.920;5.350;2023-02-28T06:28:58;17.85;;;8.60;;
41667;SDS011;27356;50.920;5.350;2023-02-28T06:31:25;10.77;;;7.80;;
41667;SDS011;27356;50.920;5.350;2023-02-28T06:33:54;15.48;;;7.72;;
41667;SDS011;27356;50.920;5.350;2023-02-28T06:36:20;18.58;;;9.05;;
41667;SDS011;27356;50.920;5.350;2023-02-28T06:38:46;10.88;;;8.27;;
41667;SDS011;27356;50.920;5.350;2023-02-28T06:41:16;11.98;;;8.48;;
41667;SDS011;27356;50.920;5.350;2023-02-28T06:43:42;13.38;;;8.40;;
41667;SDS011;27356;50.920;5.350;2023-02-28T06:46:10;15.35;;;7.97;;
41667;SDS011;27356;50.920;5.350;2023-02-28T06:48:38;19.60;;;7.78;;
41667;SDS011;27356;50.920;5.350;2023-02-28T06:51:05;17.10;;;8.43;;
41667;SDS011;27356;50.920;5.350;2023-02-28T06:53:33;15.65;;;8.25;;
41667;SDS011;27356;50.920;5.350;2023-02-28T06:56:02;14.75;;;7.65;;
41667;SDS011;27356;50.920;5.350;2023-02-28T06:58:30;14.85;;;7.75;;
41667;SDS011;27356;50.920;5.350;2023-02-28T07:00:56;12.30;;;7.20;;
41667;SDS011;27356;50.920;5.350;2023-02-28T07:03:22;7.88;;;6.47;;
41667;SDS011;27356;50.920;5.350;2023-02-28T07:05:48;9.13;;;5.75;;
41667;SDS011;27356;50.920;5.350;2023-02-28T07:08:14;15.30;;;6.05;;
41667;SDS011;27356;50.920;5.350;2023-02-28T07:10:40;10.20;;;5.28;;
41667;SDS011;27356;50.920;5.350;2023-02-28T07:13:06;14.48;;;5.28;;
41667;SDS011;27356;50.920;5.350;2023-02-28T07:15:33;6.70;;;5.65;;
41667;SDS011;27356;50.920;5.350;2023-02-28T07:18:02;8.50;;;5.07;;
41667;SDS011;27356;50.920;5.350;2023-02-28T07:20:28;7.25;;;4.78;;
41667;SDS011;27356;50.920;5.350;2023-02-28T07:22:54;8.18;;;4.95;;
41667;SDS011;27356;50.920;5.350;2023-02-28T07:25:30;5.97;;;4.45;;
41667;SDS011;27356;50.920;5.350;2023-02-28T07:27:56;6.35;;;4.05;;
41667;SDS011;27356;50.920;5.350;2023-02-28T07:30:24;11.13;;;5.28;;
41667;SDS011;27356;50.920;5.350;2023-02-28T07:32:49;7.28;;;4.35;;
41667;SDS011;27356;50.920;5.350;2023-02-28T07:35:15;11.15;;;4.05;;
41667;SDS011;27356;50.920;5.350;2023-02-28T07:37:41;10.70;;;4.25;;
41667;SDS011;27356;50.920;5.350;2023-02-28T07:40:07;7.18;;;4.38;;
41667;SDS011;27356;50.920;5.350;2023-02-28T07:42:36;4.88;;;3.88;;
41667;SDS011;27356;50.920;5.350;2023-02-28T07:45:03;8.05;;;4.07;;
41667;SDS011;27356;50.920;5.350;2023-02-28T07:47:29;8.68;;;3.80;;
41667;SDS011;27356;50.920;5.350;2023-02-28T07:49:57;6.78;;;4.28;;
41667;SDS011;27356;50.920;5.350;2023-02-28T07:52:23;4.80;;;3.72;;
41667;SDS011;27356;50.920;5.350;2023-02-28T07:54:49;6.55;;;3.60;;
41667;SDS011;27356;50.920;5.350;2023-02-28T07:57:16;5.15;;;3.72;;
41667;SDS011;27356;50.920;5.350;2023-02-28T07:59:41;6.90;;;4.22;;
41667;SDS011;27356;50.920;5.350;2023-02-28T08:02:12;7.07;;;4.25;;
41667;SDS011;27356;50.920;5.350;2023-02-28T08:04:39;8.80;;;4.05;;
41667;SDS011;27356;50.920;5.350;2023-02-28T08:07:05;7.05;;;3.80;;
41667;SDS011;27356;50.920;5.350;2023-02-28T08:09:31;7.43;;;4.28;;
41667;SDS011;27356;50.920;5.350;2023-02-28T08:11:57;6.30;;;3.80;;
41667;SDS011;27356;50.920;5.350;2023-02-28T08:14:23;7.55;;;3.95;;
41667;SDS011;27356;50.920;5.350;2023-02-28T08:16:49;4.80;;;3.08;;
41667;SDS011;27356;50.920;5.350;2023-02-28T08:19:15;8.48;;;3.30;;
41667;SDS011;27356;50.920;5.350;2023-02-28T08:21:40;12.10;;;3.30;;
41667;SDS011;27356;50.920;5.350;2023-02-28T08:24:06;5.72;;;3.22;;
41667;SDS011;27356;50.920;5.350;2023-02-28T08:26:32;4.97;;;3.30;;
41667;SDS011;27356;50.920;5.350;2023-02-28T08:28:58;5.63;;;3.25;;
41667;SDS011;27356;50.920;5.350;2023-02-28T08:31:23;5.07;;;3.45;;
41667;SDS011;27356;50.920;5.350;2023-02-28T08:33:49;5.95;;;3.03;;
41667;SDS011;27356;50.920;5.350;2023-02-28T08:36:16;5.70;;;3.15;;
41667;SDS011;27356;50.920;5.350;2023-02-28T08:38:43;5.45;;;3.70;;
41667;SDS011;27356;50.920;5.350;2023-02-28T08:41:10;7.05;;;3.00;;
41667;SDS011;27356;50.920;5.350;2023-02-28T08:43:37;5.50;;;3.25;;
41667;SDS011;27356;50.920;5.350;2023-02-28T08:46:08;5.05;;;3.03;;
41667;SDS011;27356;50.920;5.350;2023-02-28T08:48:36;4.88;;;2.80;;
41667;SDS011;27356;50.920;5.350;2023-02-28T08:51:04;7.57;;;3.65;;
41667;SDS011;27356;50.920;5.350;2023-02-28T08:53:34;7.68;;;3.03;;
41667;SDS011;27356;50.920;5.350;2023-02-28T08:56:01;7.40;;;3.28;;
41667;SDS011;27356;50.920;5.350;2023-02-28T08:58:29;6.65;;;3.25;;
41667;SDS011;27356;50.920;5.350;2023-02-28T09:00:55;3.10;;;2.72;;
41667;SDS011;27356;50.920;5.350;2023-02-28T09:03:21;6.18;;;3.38;;
41667;SDS011;27356;50.920;5.350;2023-02-28T09:05:57;3.55;;;2.78;;
41667;SDS011;27356;50.920;5.350;2023-02-28T09:08:25;5.13;;;2.90;;
41667;SDS011;27356;50.920;5.350;2023-02-28T09:10:52;2.88;;;2.55;;
41667;SDS011;27356;50.920;5.350;2023-02-28T09:13:19;2.95;;;2.42;;
41667;SDS011;27356;50.920;5.350;2023-02-28T09:15:45;6.97;;;2.25;;
41667;SDS011;27356;50.920;5.350;2023-02-28T09:18:11;5.57;;;2.88;;
41667;SDS011;27356;50.920;5.350;2023-02-28T09:20:38;3.53;;;2.58;;
41667;SDS011;27356;50.920;5.350;2023-02-28T09:23:08;3.60;;;2.00;;
41667;SDS011;27356;50.920;5.350;2023-02-28T09:25:34;4.28;;;2.20;;
41667;SDS011;27356;50.920;5.350;2023-02-28T09:28:09;3.63;;;2.10;;
41667;SDS011;27356;50.920;5.350;2023-02-28T09:30:36;2.80;;;1.90;;
41667;SDS011;27356;50.920;5.350;2023-02-28T09:33:02;5.55;;;1.92;;
41667;SDS011;27356;50.920;5.350;2023-02-28T09:35:29;1.95;;;1.65;;
41667;SDS011;27356;50.920;5.350;2023-02-28T09:37:55;4.85;;;2.05;;
41667;SDS011;27356;50.920;5.350;2023-02-28T09:40:23;6.20;;;1.83;;
41667;SDS011;27356;50.920;5.350;2023-02-28T09:42:51;4.15;;;2.05;;
41667;SDS011;27356;50.920;5.350;2023-02-28T09:47:58;4.78;;;1.83;;
41667;SDS011;27356;50.920;5.350;2023-02-28T09:53:11;3.33;;;1.73;;
41667;SDS011;27356;50.920;5.350;2023-02-28T09:55:48;2.67;;;1.73;;
41667;SDS011;27356;50.920;5.350;2023-02-28T09:58:23;4.07;;;2.10;;
41667;SDS011;27356;50.920;5.350;2023-02-28T10:03:44;5.78;;;1.88;;
41667;SDS011;27356;50.920;5.350;2023-02-28T10:06:20;5.07;;;2.00;;
41667;SDS011;27356;50.920;5.350;2023-02-28T10:11:28;5.32;;;1.90;;
41667;SDS011;27356;50.920;5.350;2023-02-28T10:13:59;2.47;;;1.90;;
41667;SDS011;27356;50.920;5.350;2023-02-28T10:16:41;5.55;;;2.40;;
41667;SDS011;27356;50.920;5.350;2023-02-28T10:19:20;3.45;;;1.88;;
41667;SDS011;27356;50.920;5.350;2023-02-28T10:24:39;2.20;;;2.00;;
41667;SDS011;27356;50.920;5.350;2023-02-28T10:29:44;5.32;;;2.28;;
41667;SDS011;27356;50.920;5.350;2023-02-28T10:32:21;4.45;;;1.73;;
41667;SDS011;27356;50.920;5.350;2023-02-28T10:34:54;1.70;;;1.50;;
41667;SDS011;27356;50.920;5.350;2023-02-28T10:37:23;6.75;;;1.88;;
41667;SDS011;27356;50.920;5.350;2023-02-28T10:39:49;3.15;;;1.88;;
41667;SDS011;27356;50.920;5.350;2023-02-28T10:42:28;2.83;;;1.50;;
41667;SDS011;27356;50.920;5.350;2023-02-28T10:45:12;2.45;;;1.52;;
41667;SDS011;27356;50.920;5.350;2023-02-28T10:47:52;2.60;;;1.63;;
41667;SDS011;27356;50.920;5.350;2023-02-28T10:52:55;1.48;;;1.38;;
41667;SDS011;27356;50.920;5.350;2023-02-28T10:55:41;3.20;;;1.80;;
41667;SDS011;27356;50.920;5.350;2023-02-28T10:58:20;6.15;;;1.70;;
41667;SDS011;27356;50.920;5.350;2023-02-28T11:00:50;2.08;;;1.63;;
41667;SDS011;27356;50.920;5.350;2023-02-28T11:03:24;4.10;;;2.03;;
41667;SDS011;27356;50.920;5.350;2023-02-28T11:05:50;3.75;;;1.83;;
41667;SDS011;27356;50.920;5.350;2023-02-28T11:08:16;4.10;;;1.30;;
41667;SDS011;27356;50.920;5.350;2023-02-28T11:10:47;1.65;;;1.42;;
41667;SDS011;27356;50.920;5.350;2023-02-28T11:13:29;5.00;;;1.50;;
41667;SDS011;27356;50.920;5.350;2023-02-28T11:15:59;5.32;;;1.67;;
41667;SDS011;27356;50.920;5.350;2023-02-28T11:18:41;2.05;;;1.20;;
41667;SDS011;27356;50.920;5.350;2023-02-28T11:21:15;6.55;;;1.60;;
41667;SDS011;27356;50.920;5.350;2023-02-28T11:23:45;3.03;;;1.25;;
41667;SDS011;27356;50.920;5.350;2023-02-28T11:26:13;1.30;;;1.20;;
41667;SDS011;27356;50.920;5.350;2023-02-28T11:28:40;2.25;;;1.38;;
41667;SDS011;27356;50.920;5.350;2023-02-28T11:36:48;1.98;;;1.55;;
41667;SDS011;27356;50.920;5.350;2023-02-28T11:39:13;3.53;;;1.40;;
41667;SDS011;27356;50.920;5.350;2023-02-28T11:44:42;2.50;;;1.23;;
41667;SDS011;27356;50.920;5.350;2023-02-28T11:58:14;2.08;;;1.38;;
41667;SDS011;27356;50.920;5.350;2023-02-28T12:07:20;1.55;;;1.10;;
41667;SDS011;27356;50.920;5.350;2023-02-28T12:20:40;2.38;;;1.33;;
41667;SDS011;27356;50.920;5.350;2023-02-28T12:28:10;2.78;;;1.52;;
41667;SDS011;27356;50.920;5.350;2023-02-28T12:31:25;4.55;;;1.77;;
41667;SDS011;27356;50.920;5.350;2023-02-28T12:33:35;4.82;;;1.65;;
41667;SDS011;27356;50.920;5.350;2023-02-28T12:36:08;2.28;;;1.58;;
41667;SDS011;27356;50.920;5.350;2023-02-28T12:39:20;2.25;;;1.83;;
41667;SDS011;27356;50.920;5.350;2023-02-28T12:44:27;3.58;;;1.90;;
41667;SDS011;27356;50.920;5.350;2023-02-28T12:47:00;2.35;;;1.63;;
41667;SDS011;27356;50.920;5.350;2023-02-28T12:49:31;3.78;;;1.67;;
41667;SDS011;27356;50.920;5.350;2023-02-28T12:52:02;4.50;;;1.90;;
41667;SDS011;27356;50.920;5.350;2023-02-28T13:10:49;2.22;;;1.70;;
41667;SDS011;27356;50.920;5.350;2023-02-28T13:13:23;6.35;;;1.80;;
41667;SDS011;27356;50.920;5.350;2023-02-28T13:15:58;3.22;;;1.70;;
41667;SDS011;27356;50.920;5.350;2023-02-28T13:18:29;13.35;;;2.58;;
41667;SDS011;27356;50.920;5.350;2023-02-28T13:21:02;3.08;;;1.90;;
41667;SDS011;27356;50.920;5.350;2023-02-28T13:23:38;3.47;;;2.28;;
41667;SDS011;27356;50.920;5.350;2023-02-28T13:34:30;3.90;;;2.35;;
41667;SDS011;27356;50.920;5.350;2023-02-28T13:42:36;2.58;;;2.38;;
41667;SDS011;27356;50.920;5.350;2023-02-28T13:47:44;2.85;;;2.53;;
41667;SDS011;27356;50.920;5.350;2023-02-28T13:52:52;8.00;;;2.28;;
41667;SDS011;27356;50.920;5.350;2023-02-28T13:55:44;6.97;;;2.13;;
41667;SDS011;27356;50.920;5.350;2023-02-28T14:04:06;2.33;;;1.80;;
41667;SDS011;27356;50.920;5.350;2023-02-28T14:06:54;2.67;;;1.98;;
41667;SDS011;27356;50.920;5.350;2023-02-28T14:11:56;9.90;;;2.03;;
41667;SDS011;27356;50.920;5.350;2023-02-28T14:17:12;4.78;;;2.30;;
41667;SDS011;27356;50.920;5.350;2023-02-28T14:22:22;2.97;;;2.17;;
41667;SDS011;27356;50.920;5.350;2023-02-28T14:25:11;2.65;;;2.15;;
41667;SDS011;27356;50.920;5.350;2023-02-28T14:28:03;3.78;;;2.38;;
41667;SDS011;27356;50.920;5.350;2023-02-28T14:33:57;3.53;;;2.20;;
41667;SDS011;27356;50.920;5.350;2023-02-28T14:36:31;5.88;;;2.30;;
41667;SDS011;27356;50.920;5.350;2023-02-28T14:41:30;2.35;;;2.08;;
41667;SDS011;27356;50.920;5.350;2023-02-28T14:43:57;8.30;;;2.28;;
41667;SDS011;27356;50.920;5.350;2023-02-28T14:46:34;3.42;;;2.20;;
41667;SDS011;27356;50.920;5.350;2023-02-28T14:49:03;3.72;;;2.20;;
41667;SDS011;27356;50.920;5.350;2023-02-28T14:51:31;3.55;;;2.25;;
41667;SDS011;27356;50.920;5.350;2023-02-28T14:53:59;2.50;;;2.20;;
41667;SDS011;27356;50.920;5.350;2023-02-28T14:56:28;4.40;;;2.22;;
41667;SDS011;27356;50.920;5.350;2023-02-28T14:59:05;5.18;;;2.20;;
41667;SDS011;27356;50.920;5.350;2023-02-28T15:01:46;3.95;;;2.10;;
41667;SDS011;27356;50.920;5.350;2023-02-28T15:04:26;2.28;;;1.83;;
41667;SDS011;27356;50.920;5.350;2023-02-28T15:07:08;3.58;;;1.98;;
41667;SDS011;27356;50.920;5.350;2023-02-28T15:09:43;2.80;;;1.70;;
41667;SDS011;27356;50.920;5.350;2023-02-28T15:12:10;2.50;;;1.95;;
41667;SDS011;27356;50.920;5.350;2023-02-28T15:14:41;3.20;;;2.13;;
41667;SDS011;27356;50.920;5.350;2023-02-28T15:17:11;6.65;;;2.15;;
41667;SDS011;27356;50.920;5.350;2023-02-28T15:19:48;4.47;;;2.35;;
41667;SDS011;27356;50.920;5.350;2023-02-28T15:22:18;3.05;;;2.13;;
41667;SDS011;27356;50.920;5.350;2023-02-28T15:24:54;3.13;;;1.83;;
41667;SDS011;27356;50.920;5.350;2023-02-28T15:27:22;3.08;;;1.95;;
41667;SDS011;27356;50.920;5.350;2023-02-28T15:29:56;3.55;;;2.10;;
41667;SDS011;27356;50.920;5.350;2023-02-28T15:35:42;3.33;;;2.40;;
41667;SDS011;27356;50.920;5.350;2023-02-28T15:40:42;5.20;;;2.15;;
41667;SDS011;27356;50.920;5.350;2023-02-28T15:43:28;4.60;;;2.05;;
41667;SDS011;27356;50.920;5.350;2023-02-28T15:46:32;4.70;;;2.70;;
41667;SDS011;27356;50.920;5.350;2023-02-28T15:48:52;5.35;;;2.28;;
41667;SDS011;27356;50.920;5.350;2023-02-28T15:51:23;4.50;;;2.50;;
41667;SDS011;27356;50.920;5.350;2023-02-28T15:53:56;4.25;;;2.08;;
41667;SDS011;27356;50.920;5.350;2023-02-28T15:56:34;4.03;;;2.40;;
41667;SDS011;27356;50.920;5.350;2023-02-28T15:59:18;3.28;;;2.47;;
41667;SDS011;27356;50.920;5.350;2023-02-28T16:01:52;3.08;;;2.58;;
41667;SDS011;27356;50.920;5.350;2023-02-28T16:07:31;4.45;;;2.25;;
41667;SDS011;27356;50.920;5.350;2023-02-28T16:09:58;4.55;;;2.38;;
41667;SDS011;27356;50.920;5.350;2023-02-28T16:12:29;2.65;;;2.30;;
41667;SDS011;27356;50.920;5.350;2023-02-28T16:14:58;6.40;;;2.45;;
41667;SDS011;27356;50.920;5.350;2023-02-28T16:17:28;3.60;;;2.58;;
41667;SDS011;27356;50.920;5.350;2023-02-28T16:19:57;4.13;;;2.10;;
41667;SDS011;27356;50.920;5.350;2023-02-28T16:22:23;4.32;;;2.30;;
41667;SDS011;27356;50.920;5.350;2023-02-28T16:24:49;8.32;;;2.08;;
41667;SDS011;27356;50.920;5.350;2023-02-28T16:27:36;4.50;;;2.25;;
41667;SDS011;27356;50.920;5.350;2023-02-28T16:30:04;4.40;;;2.40;;
41667;SDS011;27356;50.920;5.350;2023-02-28T16:32:32;4.25;;;2.20;;
41667;SDS011;27356;50.920;5.350;2023-02-28T16:35:00;3.22;;;2.20;;
41667;SDS011;27356;50.920;5.350;2023-02-28T16:37:27;5.03;;;2.38;;
41667;SDS011;27356;50.920;5.350;2023-02-28T16:39:53;5.80;;;2.58;;
41667;SDS011;27356;50.920;5.350;2023-02-28T16:42:28;3.95;;;2.15;;
41667;SDS011;27356;50.920;5.350;2023-02-28T16:44:54;3.25;;;2.03;;
41667;SDS011;27356;50.920;5.350;2023-02-28T16:47:21;6.47;;;2.42;;
41667;SDS011;27356;50.920;5.350;2023-02-28T16:49:46;3.13;;;2.65;;
41667;SDS011;27356;50.920;5.350;2023-02-28T16:52:12;4.35;;;2.72;;
41667;SDS011;27356;50.920;5.350;2023-02-28T16:54:39;5.95;;;2.95;;
41667;SDS011;27356;50.920;5.350;2023-02-28T16:57:06;8.05;;;2.10;;
41667;SDS011;27356;50.920;5.350;2023-02-28T16:59:48;3.70;;;2.47;;
41667;SDS011;27356;50.920;5.350;2023-02-28T17:02:16;4.70;;;2.40;;
41667;SDS011;27356;50.920;5.350;2023-02-28T17:04:44;5.47;;;2.55;;
41667;SDS011;27356;50.920;5.350;2023-02-28T17:07:11;3.97;;;2.30;;
41667;SDS011;27356;50.920;5.350;2023-02-28T17:09:41;3.70;;;3.15;;
41667;SDS011;27356;50.920;5.350;2023-02-28T17:12:07;3.85;;;2.55;;
41667;SDS011;27356;50.920;5.350;2023-02-28T17:14:34;3.20;;;2.53;;
41667;SDS011;27356;50.920;5.350;2023-02-28T17:17:00;5.53;;;2.80;;
41667;SDS011;27356;50.920;5.350;2023-02-28T17:19:25;4.28;;;2.70;;
41667;SDS011;27356;50.920;5.350;2023-02-28T17:21:51;7.20;;;2.47;;
41667;SDS011;27356;50.920;5.350;2023-02-28T17:24:17;5.05;;;2.88;;
41667;SDS011;27356;50.920;5.350;2023-02-28T17:26:43;4.07;;;2.45;;
41667;SDS011;27356;50.920;5.350;2023-02-28T17:29:19;14.52;;;3.17;;
41667;SDS011;27356;50.920;5.350;2023-02-28T17:31:46;6.15;;;2.80;;
41667;SDS011;27356;50.920;5.350;2023-02-28T17:34:12;3.92;;;2.58;;
41667;SDS011;27356;50.920;5.350;2023-02-28T17:36:46;4.03;;;2.55;;
41667;SDS011;27356;50.920;5.350;2023-02-28T17:39:15;3.65;;;2.38;;
41667;SDS011;27356;50.920;5.350;2023-02-28T17:41:50;5.25;;;2.72;;
41667;SDS011;27356;50.920;5.350;2023-02-28T17:44:23;4.78;;;2.70;;
41667;SDS011;27356;50.920;5.350;2023-02-28T17:46:49;6.57;;;2.80;;
41667;SDS011;27356;50.920;5.350;2023-02-28T17:49:19;11.02;;;2.53;;
41667;SDS011;27356;50.920;5.350;2023-02-28T17:51:45;3.65;;;3.13;;
41667;SDS011;27356;50.920;5.350;2023-02-28T17:54:11;3.53;;;2.75;;
41667;SDS011;27356;50.920;5.350;2023-02-28T17:56:37;5.47;;;2.88;;
41667;SDS011;27356;50.920;5.350;2023-02-28T17:59:02;6.45;;;3.50;;
41667;SDS011;27356;50.920;5.350;2023-02-28T18:01:28;10.95;;;3.83;;